North Central West Virginia Airport Clarksburg US
ICAO: KCKB
IATA: CKB
Category: Medium
Scheduled Services: Yes

Elevation: 1217 ft
TransAlt. 18000 ft.

Airport Communications:
CLARKSBURG APP/DEP:119.6
ATIS:127.825
CTAF:126.7
GND:121.9
ARNG OPS:139.05
ELKINS RDO:112.6
CLARKSBURG TWR:126.7
UNICOM:123

KCKB Zoom In..

Runways:

(A) RW 03 length 7800 ft width 150 ft
---- / hdg 31

(B) RW 21 length 7800 ft width 150 ft
ILS 109.30 / hdg 211

Location; KCKB
Day. 16 / Time. 17.59 Zulu
* Altimeter: 30.00
* Temperature: 38° c. 100.4°f.
* Wind from: VRB° Speed 05 kn.
Dewpoint: 19° c.
Visibility: 10 Statute Miles.
Clouds: Few 5000 ft.

KCKB 161759Z VRB05KT 10SM FEW050 38/19 A3000


Wind From VRB°
Speed 05 kn.

 
 
jpsmedia.com for Web Design worldairports.se 2018   terms of use